Time;durP1;ratioP1;P1;durP2;ratioP2;P2;SDS_P1;SDS_P2;PMS_P1;PMS_P2;Temp;Humidity;BMP_temperature;BMP_pressure;BME280_temperature;BME280_humidity;BME280_pressure;Samples;Min_cycle;Max_cycle;Signal;HPM_P1;HPM_P2
2022/01/28 00:01:37;;;;;;;5.65;1.20;;;;;;;;;;4955942;28;20050;-57
2022/01/28 00:04:12;;;;;;;10.40;1.42;;;;;;;;;;4972625;28;20102;-56
2022/01/28 00:06:38;;;;;;;6.80;1.05;;;;;;;;;;4976693;28;20035;-56
2022/01/28 00:09:04;;;;;;;5.18;1.25;;;;;;;;;;4990349;28;20441;-66
2022/01/28 00:11:30;;;;;;;6.05;1.05;;;;;;;;;;4974991;28;20097;-57
2022/01/28 00:14:11;;;;;;;4.28;1.25;;;;;;;;;;4973818;28;20492;-57
2022/01/28 00:38:27;;;;;;;2.83;1.15;;;;;;;;;;4963932;28;20049;-57
2022/01/28 00:40:53;;;;;;;4.97;0.90;;;;;;;;;;4963555;28;20146;-56
2022/01/28 00:43:19;;;;;;;4.68;1.10;;;;;;;;;;4973001;28;20106;-56
2022/01/28 00:45:45;;;;;;;4.38;1.10;;;;;;;;;;4973222;28;20078;-58
2022/01/28 00:48:10;;;;;;;2.80;0.98;;;;;;;;;;4976808;28;20027;-57
2022/01/28 00:50:36;;;;;;;4.97;1.13;;;;;;;;;;4976536;28;20027;-57
2022/01/28 00:53:02;;;;;;;5.93;1.17;;;;;;;;;;4975571;28;20390;-57
2022/01/28 00:55:28;;;;;;;5.10;1.50;;;;;;;;;;4976290;28;20600;-56
2022/01/28 00:57:54;;;;;;;5.35;1.08;;;;;;;;;;4976431;28;20029;-57
2022/01/28 01:00:20;;;;;;;4.07;1.02;;;;;;;;;;4976408;28;20061;-56
2022/01/28 01:02:46;;;;;;;5.75;1.02;;;;;;;;;;4976434;28;20031;-55
2022/01/28 01:05:13;;;;;;;8.75;1.30;;;;;;;;;;4976830;28;20050;-57
2022/01/28 01:07:39;;;;;;;3.70;1.00;;;;;;;;;;4976034;28;20050;-57
2022/01/28 01:10:06;;;;;;;4.00;0.95;;;;;;;;;;4976149;28;20025;-57
2022/01/28 01:12:35;;;;;;;3.53;1.10;;;;;;;;;;4975985;28;20026;-57
2022/01/28 01:15:01;;;;;;;5.75;1.30;;;;;;;;;;4976426;28;20122;-56
2022/01/28 01:17:36;;;;;;;4.43;1.20;;;;;;;;;;4975909;28;20498;-56
2022/01/28 01:20:15;;;;;;;6.30;1.20;;;;;;;;;;4976485;28;20114;-56
2022/01/28 01:22:41;;;;;;;6.15;1.05;;;;;;;;;;4958786;28;20045;-57
2022/01/28 01:25:21;;;;;;;5.30;1.20;;;;;;;;;;4976208;28;20110;-57
2022/01/28 01:27:52;;;;;;;3.35;1.00;;;;;;;;;;4973618;28;20467;-57
2022/01/28 01:30:19;;;;;;;5.72;1.10;;;;;;;;;;4975866;28;20450;-57
2022/01/28 01:32:45;;;;;;;4.00;1.10;;;;;;;;;;4976072;28;20027;-57
2022/01/28 01:35:11;;;;;;;3.28;1.00;;;;;;;;;;4975742;28;20085;-58
2022/01/28 01:37:37;;;;;;;3.72;1.00;;;;;;;;;;4975817;28;20505;-57
2022/01/28 01:40:04;;;;;;;3.13;0.93;;;;;;;;;;4975825;28;20058;-57
2022/01/28 01:42:45;;;;;;;4.80;1.50;;;;;;;;;;4975590;28;20027;-58
2022/01/28 01:45:49;;;;;;;3.10;0.90;;;;;;;;;;4975532;28;20030;-55
2022/01/28 01:53:41;;;;;;;3.72;0.90;;;;;;;;;;4975807;28;20118;-55
2022/01/28 01:56:07;;;;;;;6.75;1.00;;;;;;;;;;4975320;28;20105;-57
2022/01/28 01:58:35;;;;;;;8.18;1.27;;;;;;;;;;4974687;28;20395;-57
2022/01/28 02:01:01;;;;;;;4.25;1.20;;;;;;;;;;4969692;28;20038;-57
2022/01/28 02:03:28;;;;;;;7.28;1.20;;;;;;;;;;4972096;28;20114;-58
2022/01/28 02:05:58;;;;;;;5.40;1.10;;;;;;;;;;4956061;29;20032;-58
2022/01/28 02:08:28;;;;;;;4.60;1.10;;;;;;;;;;4955999;28;20031;-57
2022/01/28 02:10:57;;;;;;;8.25;0.90;;;;;;;;;;4979407;28;20036;-63
2022/01/28 02:13:25;;;;;;;3.75;1.00;;;;;;;;;;4994108;28;20466;-62
2022/01/28 02:15:51;;;;;;;11.88;1.20;;;;;;;;;;4994632;28;20033;-57
2022/01/28 02:18:16;;;;;;;7.53;1.38;;;;;;;;;;4957275;28;20047;-57
2022/01/28 02:20:47;;;;;;;7.25;0.90;;;;;;;;;;4955698;28;20073;-58
2022/01/28 02:23:14;;;;;;;10.07;1.20;;;;;;;;;;4955640;29;20027;-57
2022/01/28 02:25:40;;;;;;;6.00;1.05;;;;;;;;;;4968887;28;20074;-57
2022/01/28 02:28:09;;;;;;;2.35;0.90;;;;;;;;;;4975003;28;20023;-58
2022/01/28 02:30:35;;;;;;;8.48;1.38;;;;;;;;;;4974887;28;20023;-57
2022/01/28 02:33:10;;;;;;;4.43;1.20;;;;;;;;;;4974729;28;20033;-57
2022/01/28 02:35:36;;;;;;;7.18;1.48;;;;;;;;;;4974852;28;20110;-57
2022/01/28 02:38:02;;;;;;;6.93;1.15;;;;;;;;;;4974637;28;20023;-57
2022/01/28 02:40:28;;;;;;;4.90;1.13;;;;;;;;;;4973803;28;20050;-56
2022/01/28 02:43:04;;;;;;;4.35;1.02;;;;;;;;;;4974546;28;20081;-58
2022/01/28 02:45:36;;;;;;;5.03;1.33;;;;;;;;;;4974596;28;20041;-58
2022/01/28 02:48:07;;;;;;;6.80;1.42;;;;;;;;;;4974707;28;20054;-59
2022/01/28 02:50:42;;;;;;;7.32;1.20;;;;;;;;;;4974605;28;20039;-58
2022/01/28 02:53:19;;;;;;;5.85;1.25;;;;;;;;;;4974784;28;20030;-57
2022/01/28 02:55:45;;;;;;;6.18;0.75;;;;;;;;;;4974733;28;20089;-57
2022/01/28 02:58:20;;;;;;;3.25;0.90;;;;;;;;;;4973538;28;20479;-58
2022/01/28 03:00:47;;;;;;;10.68;1.13;;;;;;;;;;4972943;28;20027;-57
2022/01/28 03:03:14;;;;;;;3.50;0.95;;;;;;;;;;4974196;28;20117;-58
2022/01/28 03:05:40;;;;;;;4.65;1.30;;;;;;;;;;4974290;28;20059;-58
2022/01/28 03:08:06;;;;;;;6.38;1.50;;;;;;;;;;4974153;28;20441;-57
2022/01/28 03:15:39;;;;;;;3.65;0.90;;;;;;;;;;4993152;28;20446;-59
2022/01/28 03:18:12;;;;;;;5.63;1.00;;;;;;;;;;4957808;28;20094;-59
2022/01/28 03:20:43;;;;;;;2.75;0.90;;;;;;;;;;4955141;29;20027;-58
2022/01/28 03:23:10;;;;;;;6.60;1.20;;;;;;;;;;4954640;29;20023;-59
2022/01/28 03:25:39;;;;;;;7.38;1.58;;;;;;;;;;4954550;29;20034;-58
2022/01/28 03:28:05;;;;;;;4.82;1.50;;;;;;;;;;4954622;28;20058;-58
2022/01/28 03:30:31;;;;;;;7.00;0.90;;;;;;;;;;4970604;28;20054;-58
2022/01/28 03:32:57;;;;;;;4.22;1.05;;;;;;;;;;4973661;28;20034;-59
2022/01/28 03:35:23;;;;;;;5.47;1.20;;;;;;;;;;4973676;28;20433;-60
2022/01/28 03:37:58;;;;;;;3.38;1.00;;;;;;;;;;4974117;28;20029;-59
2022/01/28 03:40:24;;;;;;;7.57;1.50;;;;;;;;;;4973602;28;20106;-58
2022/01/28 03:42:50;;;;;;;7.50;1.50;;;;;;;;;;4973456;28;20357;-58
2022/01/28 03:45:16;;;;;;;4.13;0.93;;;;;;;;;;4973045;28;20517;-58
2022/01/28 03:47:42;;;;;;;6.15;1.00;;;;;;;;;;4973597;28;20121;-57
2022/01/28 03:50:08;;;;;;;7.20;0.98;;;;;;;;;;4973553;28;20019;-58
2022/01/28 03:52:34;;;;;;;2.97;0.90;;;;;;;;;;4973229;28;20030;-58
2022/01/28 03:55:00;;;;;;;2.83;0.88;;;;;;;;;;4973413;28;20383;-58
2022/01/28 03:57:25;;;;;;;2.88;0.80;;;;;;;;;;4973641;28;20042;-58
2022/01/28 03:59:51;;;;;;;6.22;1.13;;;;;;;;;;4969711;28;20505;-58
2022/01/28 04:02:21;;;;;;;4.85;1.00;;;;;;;;;;4968453;28;20038;-58
2022/01/28 04:11:25;;;;;;;3.40;1.10;;;;;;;;;;4973529;28;20027;-58
2022/01/28 04:13:06;;;;;;;4.68;0.90;;;;;;;;;;4993027;28;20056;-55
2022/01/28 04:15:52;;;;;;;6.72;1.15;;;;;;;;;;4992162;28;20769;-56
2022/01/28 04:18:18;;;;;;;3.70;0.95;;;;;;;;;;4976091;28;20055;-58
2022/01/28 04:20:44;;;;;;;4.05;1.05;;;;;;;;;;4973156;28;20027;-58
2022/01/28 04:23:10;;;;;;;6.22;1.00;;;;;;;;;;4976929;28;20035;-58
2022/01/28 04:25:36;;;;;;;4.50;0.95;;;;;;;;;;4970280;28;20471;-58
2022/01/28 04:28:02;;;;;;;6.25;1.00;;;;;;;;;;4977014;28;20043;-60
2022/01/28 04:30:28;;;;;;;2.70;0.90;;;;;;;;;;4976827;28;20027;-58
2022/01/28 04:32:54;;;;;;;7.78;1.55;;;;;;;;;;4981559;28;20069;-61
2022/01/28 04:35:20;;;;;;;7.07;0.80;;;;;;;;;;4983819;28;20348;-58
2022/01/28 04:40:18;;;;;;;6.50;0.90;;;;;;;;;;4984684;28;20049;-58
2022/01/28 04:48:00;;;;;;;3.03;0.80;;;;;;;;;;4984766;28;20077;-58
2022/01/28 04:50:47;;;;;;;2.63;0.80;;;;;;;;;;4982344;28;20019;-58
2022/01/28 04:56:10;;;;;;;2.17;1.00;;;;;;;;;;4987293;28;20435;-56
2022/01/28 05:09:32;;;;;;;3.55;1.15;;;;;;;;;;4976732;28;20073;-59
2022/01/28 05:27:46;;;;;;;5.30;0.73;;;;;;;;;;4976333;28;20510;-58
2022/01/28 05:30:12;;;;;;;3.03;0.85;;;;;;;;;;4978313;28;20034;-58
2022/01/28 05:32:38;;;;;;;5.82;0.90;;;;;;;;;;4957635;28;20034;-63
2022/01/28 05:35:04;;;;;;;7.68;1.10;;;;;;;;;;4974303;28;20035;-65
2022/01/28 05:37:30;;;;;;;10.73;1.20;;;;;;;;;;4975517;28;20479;-59
2022/01/28 05:39:56;;;;;;;12.07;1.25;;;;;;;;;;4963630;28;20108;-59
2022/01/28 05:42:22;;;;;;;12.35;1.63;;;;;;;;;;4987716;28;20066;-57
2022/01/28 05:44:48;;;;;;;11.95;1.40;;;;;;;;;;4984333;28;20023;-57
2022/01/28 05:47:16;;;;;;;26.55;2.05;;;;;;;;;;4984199;28;20081;-57
2022/01/28 05:49:43;;;;;;;21.63;1.70;;;;;;;;;;4983701;28;20346;-58
2022/01/28 05:52:09;;;;;;;10.60;1.20;;;;;;;;;;4981151;28;20025;-58
2022/01/28 05:54:35;;;;;;;19.00;1.60;;;;;;;;;;4971538;28;20454;-58
2022/01/28 05:57:01;;;;;;;16.95;1.40;;;;;;;;;;4986761;28;20026;-59
2022/01/28 05:59:28;;;;;;;10.15;1.30;;;;;;;;;;4994812;28;20054;-58
2022/01/28 06:01:54;;;;;;;17.20;1.60;;;;;;;;;;4994540;28;20089;-57
2022/01/28 06:04:21;;;;;;;10.68;1.20;;;;;;;;;;4994866;28;20053;-58
2022/01/28 06:06:47;;;;;;;8.10;1.02;;;;;;;;;;4994876;28;20065;-58
2022/01/28 06:09:13;;;;;;;5.75;0.98;;;;;;;;;;4994499;28;20025;-58
2022/01/28 06:11:40;;;;;;;8.38;1.10;;;;;;;;;;4975650;28;20026;-57
2022/01/28 06:14:09;;;;;;;4.65;1.13;;;;;;;;;;4974855;28;20019;-58
2022/01/28 06:16:35;;;;;;;6.88;1.00;;;;;;;;;;4975152;28;20035;-60
2022/01/28 06:19:01;;;;;;;13.73;1.27;;;;;;;;;;4974967;28;20026;-60
2022/01/28 06:21:27;;;;;;;3.90;0.75;;;;;;;;;;4974734;28;20039;-58
2022/01/28 06:23:53;;;;;;;7.43;1.20;;;;;;;;;;4974266;28;20108;-58
2022/01/28 06:26:19;;;;;;;2.33;0.80;;;;;;;;;;4974825;28;20110;-58
2022/01/28 06:28:45;;;;;;;6.57;1.50;;;;;;;;;;4974872;28;20026;-58
2022/01/28 06:31:11;;;;;;;3.35;1.08;;;;;;;;;;4974503;28;20082;-58
2022/01/28 06:33:37;;;;;;;7.43;1.05;;;;;;;;;;4974678;28;20023;-58
2022/01/28 06:36:03;;;;;;;5.70;1.13;;;;;;;;;;4974858;28;20023;-59
2022/01/28 06:38:30;;;;;;;6.05;1.20;;;;;;;;;;4974754;28;20031;-58
2022/01/28 06:40:56;;;;;;;4.88;1.40;;;;;;;;;;4953655;28;20062;-58
2022/01/28 06:43:23;;;;;;;10.70;1.42;;;;;;;;;;4970326;28;20035;-58
2022/01/28 06:45:49;;;;;;;7.40;1.10;;;;;;;;;;4956978;28;20023;-58
2022/01/28 06:48:19;;;;;;;5.70;1.42;;;;;;;;;;4974386;28;20038;-58
2022/01/28 06:50:45;;;;;;;7.05;1.05;;;;;;;;;;4973972;28;20074;-58
2022/01/28 06:53:12;;;;;;;8.57;1.10;;;;;;;;;;4974444;28;20030;-58
2022/01/28 06:55:38;;;;;;;12.63;1.20;;;;;;;;;;4974312;28;20058;-58
2022/01/28 06:58:05;;;;;;;8.57;0.90;;;;;;;;;;4973153;28;20031;-58
2022/01/28 07:00:36;;;;;;;13.57;1.25;;;;;;;;;;4956689;28;20034;-60
2022/01/28 07:03:03;;;;;;;12.35;1.20;;;;;;;;;;4974140;28;20367;-59
2022/01/28 07:05:29;;;;;;;5.88;1.25;;;;;;;;;;4974510;28;20023;-58
2022/01/28 07:07:54;;;;;;;4.82;1.00;;;;;;;;;;4974513;28;20023;-60
2022/01/28 07:10:20;;;;;;;12.07;1.50;;;;;;;;;;4979406;28;20042;-58
2022/01/28 07:12:46;;;;;;;19.13;1.05;;;;;;;;;;4976079;28;20027;-59
2022/01/28 07:15:12;;;;;;;6.72;1.00;;;;;;;;;;4992831;28;20022;-59
2022/01/28 07:17:38;;;;;;;13.52;1.80;;;;;;;;;;4992990;28;20105;-58
2022/01/28 07:20:06;;;;;;;4.30;1.02;;;;;;;;;;4993130;28;20427;-59
2022/01/28 07:22:32;;;;;;;5.55;1.23;;;;;;;;;;4993183;28;20038;-58
2022/01/28 07:24:58;;;;;;;4.03;0.80;;;;;;;;;;4993075;28;20374;-58
2022/01/28 07:27:24;;;;;;;7.45;1.45;;;;;;;;;;4992980;28;20065;-58
2022/01/28 07:29:50;;;;;;;6.65;1.17;;;;;;;;;;4986652;28;20462;-58
2022/01/28 07:32:17;;;;;;;6.53;0.98;;;;;;;;;;4973282;28;20030;-58
2022/01/28 07:34:43;;;;;;;9.98;1.13;;;;;;;;;;4973590;28;20455;-58
2022/01/28 07:37:09;;;;;;;5.65;1.13;;;;;;;;;;4973651;28;20050;-56
2022/01/28 07:39:35;;;;;;;8.93;1.10;;;;;;;;;;4973330;28;20053;-58
2022/01/28 07:42:01;;;;;;;4.28;0.80;;;;;;;;;;4973303;28;20038;-55
2022/01/28 07:44:27;;;;;;;8.10;1.08;;;;;;;;;;4973454;28;20034;-61
2022/01/28 07:46:53;;;;;;;10.48;1.38;;;;;;;;;;4973599;28;20027;-58
2022/01/28 07:49:19;;;;;;;5.13;1.10;;;;;;;;;;4972339;28;20030;-57
2022/01/28 07:51:45;;;;;;;11.02;1.60;;;;;;;;;;4972786;28;20023;-56
2022/01/28 07:54:11;;;;;;;11.35;1.30;;;;;;;;;;4973386;28;20482;-55
2022/01/28 07:56:37;;;;;;;5.20;1.20;;;;;;;;;;4972682;28;20031;-55
2022/01/28 07:59:03;;;;;;;9.52;1.33;;;;;;;;;;4955809;28;20064;-58
2022/01/28 08:01:29;;;;;;;14.88;1.45;;;;;;;;;;4973093;28;20097;-58
2022/01/28 08:03:55;;;;;;;7.32;1.50;;;;;;;;;;4973344;28;20093;-57
2022/01/28 08:06:20;;;;;;;6.47;1.20;;;;;;;;;;4972040;28;20066;-58
2022/01/28 08:08:46;;;;;;;7.30;1.35;;;;;;;;;;4972980;28;20027;-56
2022/01/28 08:11:13;;;;;;;10.57;1.75;;;;;;;;;;4972912;28;20026;-57
2022/01/28 08:13:39;;;;;;;9.75;1.52;;;;;;;;;;4973187;28;20031;-59
2022/01/28 08:16:05;;;;;;;21.40;1.40;;;;;;;;;;4973399;28;20033;-56
2022/01/28 08:18:31;;;;;;;22.05;1.30;;;;;;;;;;4971206;28;20433;-62
2022/01/28 08:20:58;;;;;;;6.82;1.15;;;;;;;;;;4975851;28;20057;-56
2022/01/28 08:23:24;;;;;;;13.63;1.55;;;;;;;;;;4990915;28;20034;-54
2022/01/28 08:25:54;;;;;;;9.95;1.50;;;;;;;;;;4984441;28;20705;-60
2022/01/28 08:28:20;;;;;;;10.15;1.40;;;;;;;;;;4975553;28;20163;-57
2022/01/28 08:30:46;;;;;;;10.55;1.77;;;;;;;;;;4980587;28;20301;-56
2022/01/28 08:33:12;;;;;;;11.75;1.35;;;;;;;;;;4983058;28;20414;-57
2022/01/28 08:35:40;;;;;;;11.63;1.38;;;;;;;;;;4980546;28;20465;-56
2022/01/28 08:38:14;;;;;;;8.55;1.33;;;;;;;;;;4981430;28;20483;-56
2022/01/28 08:40:40;;;;;;;7.97;1.27;;;;;;;;;;4979279;28;20019;-57
2022/01/28 08:43:06;;;;;;;5.88;1.50;;;;;;;;;;4978529;28;20027;-55
2022/01/28 08:45:32;;;;;;;7.68;1.23;;;;;;;;;;4980789;28;20031;-58
2022/01/28 08:47:58;;;;;;;7.35;1.48;;;;;;;;;;4983570;28;20050;-56
2022/01/28 08:50:24;;;;;;;6.35;1.60;;;;;;;;;;4982726;28;20022;-60
2022/01/28 08:52:50;;;;;;;13.32;1.42;;;;;;;;;;4981116;28;20054;-61
2022/01/28 08:55:16;;;;;;;7.07;1.10;;;;;;;;;;4962103;28;20031;-61
2022/01/28 08:57:43;;;;;;;4.50;1.33;;;;;;;;;;4978243;28;20026;-61
2022/01/28 09:00:13;;;;;;;8.93;1.55;;;;;;;;;;4980731;28;20015;-60
2022/01/28 09:02:41;;;;;;;4.05;1.42;;;;;;;;;;4980407;28;20039;-62
2022/01/28 09:05:07;;;;;;;9.52;1.42;;;;;;;;;;4977537;28;20025;-62
2022/01/28 09:07:33;;;;;;;6.75;1.50;;;;;;;;;;4968902;28;20034;-62
2022/01/28 09:10:05;;;;;;;6.15;1.40;;;;;;;;;;4987094;28;20025;-62
2022/01/28 09:12:39;;;;;;;8.18;1.35;;;;;;;;;;4982311;28;20030;-63
2022/01/28 09:15:05;;;;;;;5.65;1.63;;;;;;;;;;4980769;28;20038;-63
2022/01/28 09:17:31;;;;;;;7.22;1.77;;;;;;;;;;4969117;28;20576;-63
2022/01/28 09:19:57;;;;;;;8.68;1.40;;;;;;;;;;4982593;28;20027;-62
2022/01/28 09:22:23;;;;;;;5.47;1.70;;;;;;;;;;4980846;28;20077;-62
2022/01/28 09:24:49;;;;;;;4.30;1.25;;;;;;;;;;4975875;28;20455;-62
2022/01/28 09:27:15;;;;;;;5.22;1.38;;;;;;;;;;4976015;28;20033;-63
2022/01/28 09:29:41;;;;;;;5.03;1.50;;;;;;;;;;4975211;28;20023;-62
2022/01/28 09:32:08;;;;;;;3.78;1.55;;;;;;;;;;4975313;28;20430;-62
2022/01/28 09:34:34;;;;;;;5.82;1.80;;;;;;;;;;4980223;28;20068;-63
2022/01/28 09:37:00;;;;;;;6.60;1.92;;;;;;;;;;4985316;28;20430;-63
2022/01/28 09:39:26;;;;;;;5.68;1.40;;;;;;;;;;4985678;28;20022;-63
2022/01/28 09:41:59;;;;;;;5.32;1.20;;;;;;;;;;4982436;28;20422;-59
2022/01/28 09:44:26;;;;;;;6.93;1.50;;;;;;;;;;4982830;28;20018;-62
2022/01/28 09:46:52;;;;;;;14.13;1.50;;;;;;;;;;4979430;28;20029;-60
2022/01/28 09:49:18;;;;;;;5.25;1.40;;;;;;;;;;4968107;28;20023;-59
2022/01/28 09:51:45;;;;;;;13.93;1.40;;;;;;;;;;4982733;28;20454;-60
2022/01/28 09:54:11;;;;;;;6.13;1.50;;;;;;;;;;4982556;28;20537;-60
2022/01/28 09:56:37;;;;;;;6.65;1.30;;;;;;;;;;4967009;28;20062;-63
2022/01/28 09:59:03;;;;;;;12.15;1.60;;;;;;;;;;4983218;28;20030;-64
2022/01/28 10:01:29;;;;;;;5.32;1.52;;;;;;;;;;4982227;28;20028;-64
2022/01/28 10:04:03;;;;;;;4.38;1.30;;;;;;;;;;4979407;28;20106;-66
2022/01/28 10:06:36;;;;;;;4.93;1.20;;;;;;;;;;4982593;28;20125;-64
2022/01/28 10:09:15;;;;;;;9.88;1.50;;;;;;;;;;4965213;28;20046;-63
2022/01/28 10:11:46;;;;;;;9.45;1.98;;;;;;;;;;4966346;28;20054;-62
2022/01/28 10:14:33;;;;;;;11.85;1.50;;;;;;;;;;4963185;28;20034;-63
2022/01/28 10:17:01;;;;;;;4.10;1.42;;;;;;;;;;4976871;28;20529;-64
2022/01/28 10:19:28;;;;;;;4.68;1.30;;;;;;;;;;4966294;28;20026;-64
2022/01/28 10:21:55;;;;;;;8.00;1.70;;;;;;;;;;4985999;28;20030;-64
2022/01/28 10:24:21;;;;;;;10.80;1.65;;;;;;;;;;4988251;28;20118;-63
2022/01/28 10:26:47;;;;;;;7.55;1.55;;;;;;;;;;4967296;28;20146;-63
2022/01/28 10:29:17;;;;;;;3.95;1.38;;;;;;;;;;4980526;28;20035;-64
2022/01/28 10:31:45;;;;;;;5.10;1.45;;;;;;;;;;4987804;28;20401;-65
2022/01/28 10:34:13;;;;;;;7.60;1.60;;;;;;;;;;4977888;28;20027;-65
2022/01/28 10:36:40;;;;;;;7.05;1.40;;;;;;;;;;4980797;28;20142;-64
2022/01/28 10:39:07;;;;;;;6.30;1.33;;;;;;;;;;4976302;28;20031;-64
2022/01/28 10:41:33;;;;;;;6.75;1.40;;;;;;;;;;4974155;28;20124;-64
2022/01/28 10:44:01;;;;;;;5.20;1.30;;;;;;;;;;4974019;28;20058;-63
2022/01/28 10:46:35;;;;;;;9.15;1.67;;;;;;;;;;4974237;28;20110;-65
2022/01/28 10:49:02;;;;;;;5.88;1.00;;;;;;;;;;4966882;28;20501;-63
2022/01/28 10:51:49;;;;;;;5.13;1.40;;;;;;;;;;4973229;28;20033;-63
2022/01/28 10:54:16;;;;;;;9.10;1.35;;;;;;;;;;4953085;29;20120;-60
2022/01/28 10:56:55;;;;;;;5.30;1.23;;;;;;;;;;4954457;28;20168;-60
2022/01/28 10:59:23;;;;;;;11.25;1.30;;;;;;;;;;4954327;28;20068;-60
2022/01/28 11:01:49;;;;;;;8.88;1.20;;;;;;;;;;4954151;28;20110;-63
2022/01/28 11:04:17;;;;;;;4.43;1.30;;;;;;;;;;4971187;28;20031;-61
2022/01/28 11:06:44;;;;;;;6.85;1.52;;;;;;;;;;4973413;28;20018;-60
2022/01/28 11:09:11;;;;;;;5.03;1.40;;;;;;;;;;4972616;28;20030;-60
2022/01/28 11:11:38;;;;;;;4.70;1.45;;;;;;;;;;4971218;28;20053;-60
2022/01/28 11:14:04;;;;;;;4.03;1.20;;;;;;;;;;4973524;28;20019;-59
2022/01/28 11:16:30;;;;;;;3.50;1.20;;;;;;;;;;4955888;28;20031;-62
2022/01/28 11:18:57;;;;;;;9.27;1.60;;;;;;;;;;4973171;28;20141;-63
2022/01/28 11:21:30;;;;;;;12.40;1.20;;;;;;;;;;4955098;28;20390;-63
2022/01/28 11:23:56;;;;;;;6.53;1.40;;;;;;;;;;4967116;28;20034;-63
2022/01/28 11:26:50;;;;;;;3.38;1.10;;;;;;;;;;4963029;28;20040;-62
2022/01/28 11:29:20;;;;;;;4.78;1.10;;;;;;;;;;4940623;28;20039;-59
2022/01/28 11:31:46;;;;;;;8.65;0.98;;;;;;;;;;4954523;28;20041;-60
2022/01/28 11:34:16;;;;;;;7.65;1.20;;;;;;;;;;4963337;28;20030;-60
2022/01/28 11:36:42;;;;;;;8.88;1.30;;;;;;;;;;4975913;28;20093;-61
2022/01/28 11:39:26;;;;;;;6.75;1.55;;;;;;;;;;4972946;28;20047;-61
2022/01/28 11:42:18;;;;;;;7.60;1.48;;;;;;;;;;4973293;28;20038;-60
2022/01/28 11:45:00;;;;;;;6.30;1.15;;;;;;;;;;4972852;28;20093;-60
2022/01/28 11:47:28;;;;;;;7.90;1.20;;;;;;;;;;4973095;28;20039;-61
2022/01/28 11:49:54;;;;;;;7.90;1.92;;;;;;;;;;4955767;28;20138;-60
2022/01/28 11:52:20;;;;;;;7.47;1.55;;;;;;;;;;4982377;28;20113;-60
2022/01/28 11:54:46;;;;;;;5.10;1.27;;;;;;;;;;4974749;28;20022;-64
2022/01/28 11:57:13;;;;;;;10.48;1.60;;;;;;;;;;4992415;28;20041;-64
2022/01/28 11:59:39;;;;;;;7.25;1.67;;;;;;;;;;4983600;28;20039;-62
2022/01/28 12:02:05;;;;;;;7.80;1.90;;;;;;;;;;4972746;28;20035;-62
2022/01/28 12:04:32;;;;;;;6.90;2.10;;;;;;;;;;4973314;28;20419;-62
2022/01/28 12:07:14;;;;;;;9.43;2.17;;;;;;;;;;4973210;28;20027;-61
2022/01/28 12:09:41;;;;;;;15.77;2.92;;;;;;;;;;4973879;28;20070;-62
2022/01/28 12:12:09;;;;;;;11.18;2.80;;;;;;;;;;4977824;28;20050;-62
2022/01/28 12:15:00;;;;;;;15.02;3.30;;;;;;;;;;4989624;28;20038;-61
2022/01/28 12:17:32;;;;;;;12.52;2.67;;;;;;;;;;4981140;28;20078;-62
2022/01/28 12:20:21;;;;;;;10.75;3.08;;;;;;;;;;4966764;28;20102;-63
2022/01/28 12:22:59;;;;;;;10.57;3.33;;;;;;;;;;4964042;28;20026;-59
2022/01/28 12:25:41;;;;;;;16.85;3.17;;;;;;;;;;4972649;28;20474;-59
2022/01/28 12:28:19;;;;;;;12.27;3.75;;;;;;;;;;4973155;28;20153;-59
2022/01/28 12:30:47;;;;;;;11.88;2.80;;;;;;;;;;4983615;28;20026;-59
2022/01/28 12:33:14;;;;;;;11.48;3.10;;;;;;;;;;4989744;28;20045;-62
2022/01/28 12:35:40;;;;;;;12.23;3.00;;;;;;;;;;4972633;28;20023;-63
2022/01/28 12:38:07;;;;;;;8.75;2.30;;;;;;;;;;4970637;28;20125;-63
2022/01/28 12:40:36;;;;;;;11.18;3.47;;;;;;;;;;4970283;28;20026;-63
2022/01/28 12:43:05;;;;;;;7.45;3.10;;;;;;;;;;4974533;28;20042;-62
2022/01/28 12:45:32;;;;;;;8.40;2.58;;;;;;;;;;4976531;28;20042;-62
2022/01/28 12:47:58;;;;;;;11.85;3.25;;;;;;;;;;4976587;28;20140;-62
2022/01/28 12:50:24;;;;;;;9.60;2.72;;;;;;;;;;4976574;28;20027;-63
2022/01/28 12:52:51;;;;;;;9.93;2.47;;;;;;;;;;4976606;28;20027;-62
2022/01/28 12:55:17;;;;;;;10.15;3.40;;;;;;;;;;4976514;28;20467;-63
2022/01/28 12:57:43;;;;;;;10.73;2.88;;;;;;;;;;4975383;28;20074;-63
2022/01/28 13:00:10;;;;;;;10.52;2.40;;;;;;;;;;4976480;28;20117;-63
2022/01/28 13:02:36;;;;;;;12.95;2.88;;;;;;;;;;4976519;28;20062;-63
2022/01/28 13:10:27;;;;;;;10.73;2.25;;;;;;;;;;4981126;28;20041;-64
2022/01/28 13:13:02;;;;;;;7.20;2.08;;;;;;;;;;4985158;28;20058;-63
2022/01/28 13:15:28;;;;;;;9.07;2.15;;;;;;;;;;4976009;28;20126;-63
2022/01/28 13:17:56;;;;;;;9.38;2.20;;;;;;;;;;4975944;28;20078;-63
2022/01/28 13:20:22;;;;;;;6.80;2.47;;;;;;;;;;4976106;28;20035;-64
2022/01/28 13:22:52;;;;;;;6.50;2.10;;;;;;;;;;4975863;28;20038;-63
2022/01/28 13:25:23;;;;;;;6.43;2.22;;;;;;;;;;4976055;28;20113;-62
2022/01/28 13:27:54;;;;;;;8.85;2.22;;;;;;;;;;4976319;28;20035;-64
2022/01/28 13:30:20;;;;;;;12.25;2.00;;;;;;;;;;4975723;28;20035;-64
2022/01/28 13:32:49;;;;;;;7.50;2.08;;;;;;;;;;4975352;28;20038;-63
2022/01/28 13:35:16;;;;;;;6.30;2.10;;;;;;;;;;4976018;28;20443;-62
2022/01/28 13:37:42;;;;;;;7.57;1.63;;;;;;;;;;4970705;28;20050;-60
2022/01/28 13:40:26;;;;;;;8.10;1.92;;;;;;;;;;4956528;28;20020;-61
2022/01/28 13:43:06;;;;;;;13.82;2.17;;;;;;;;;;4975128;28;20034;-60
2022/01/28 13:45:35;;;;;;;17.40;2.22;;;;;;;;;;4984032;28;20144;-58
2022/01/28 13:48:02;;;;;;;7.85;2.05;;;;;;;;;;4975140;28;20050;-58
2022/01/28 13:50:29;;;;;;;11.48;2.15;;;;;;;;;;4975418;28;20356;-57
2022/01/28 13:53:21;;;;;;;10.35;2.17;;;;;;;;;;4974164;28;20031;-57
2022/01/28 13:55:47;;;;;;;7.20;1.90;;;;;;;;;;4982730;28;20027;-57
2022/01/28 13:58:14;;;;;;;4.57;1.67;;;;;;;;;;4985908;28;20030;-59
2022/01/28 14:00:42;;;;;;;7.30;1.70;;;;;;;;;;4983434;28;20018;-58
2022/01/28 14:03:34;;;;;;;13.23;1.67;;;;;;;;;;4959309;28;20043;-58
2022/01/28 14:06:01;;;;;;;7.07;1.35;;;;;;;;;;4976402;28;20039;-58
2022/01/28 14:08:40;;;;;;;5.32;1.52;;;;;;;;;;4993366;28;20101;-58
2022/01/28 14:11:20;;;;;;;7.22;1.52;;;;;;;;;;4970666;28;20019;-58
2022/01/28 14:14:03;;;;;;;8.30;1.63;;;;;;;;;;4982451;28;20081;-59
2022/01/28 14:16:29;;;;;;;4.95;1.48;;;;;;;;;;4984029;28;20030;-58
2022/01/28 14:18:55;;;;;;;9.55;1.60;;;;;;;;;;4984043;28;20033;-62
2022/01/28 14:21:21;;;;;;;3.53;1.10;;;;;;;;;;4984519;28;20385;-62
2022/01/28 14:23:47;;;;;;;4.72;1.70;;;;;;;;;;4982298;28;20088;-64
2022/01/28 14:26:14;;;;;;;7.45;1.58;;;;;;;;;;4983374;28;20098;-62
2022/01/28 14:29:09;;;;;;;6.78;1.30;;;;;;;;;;4981785;28;20419;-58
2022/01/28 14:31:26;;;;;;;8.40;1.30;;;;;;;;;;4982288;28;20027;-58
2022/01/28 14:33:54;;;;;;;6.47;1.52;;;;;;;;;;4982708;28;20406;-58
2022/01/28 14:36:20;;;;;;;5.30;1.58;;;;;;;;;;4982960;28;20022;-59
2022/01/28 14:38:46;;;;;;;11.55;1.60;;;;;;;;;;4987045;28;20022;-60
2022/01/28 14:41:13;;;;;;;4.13;1.15;;;;;;;;;;4984292;28;20092;-60
2022/01/28 14:43:38;;;;;;;7.57;1.20;;;;;;;;;;4969737;28;20062;-59
2022/01/28 14:46:05;;;;;;;4.65;1.20;;;;;;;;;;4956183;28;20058;-60
2022/01/28 14:48:31;;;;;;;6.93;1.60;;;;;;;;;;4972981;28;20035;-60
2022/01/28 14:50:57;;;;;;;6.25;1.60;;;;;;;;;;4973719;28;20030;-59
2022/01/28 14:53:23;;;;;;;5.55;1.25;;;;;;;;;;4974353;28;20026;-58
2022/01/28 14:55:49;;;;;;;4.72;1.13;;;;;;;;;;4974376;28;20023;-58
2022/01/28 14:58:15;;;;;;;4.55;1.42;;;;;;;;;;4974185;28;20038;-63
2022/01/28 15:00:41;;;;;;;13.75;1.63;;;;;;;;;;4974309;28;20023;-58
2022/01/28 15:03:10;;;;;;;3.83;1.38;;;;;;;;;;4973086;28;20043;-60
2022/01/28 15:05:36;;;;;;;9.10;1.70;;;;;;;;;;4973882;28;20027;-59
2022/01/28 15:08:08;;;;;;;5.18;1.38;;;;;;;;;;4952958;29;20506;-58
2022/01/28 15:10:35;;;;;;;4.43;1.40;;;;;;;;;;4967581;28;20023;-59
2022/01/28 15:13:01;;;;;;;4.75;1.38;;;;;;;;;;4973403;28;20031;-59
2022/01/28 15:15:27;;;;;;;3.72;1.45;;;;;;;;;;4973923;28;20023;-58
2022/01/28 15:17:53;;;;;;;5.32;1.30;;;;;;;;;;4973596;28;20097;-58
2022/01/28 15:20:19;;;;;;;7.50;1.77;;;;;;;;;;4968545;28;20030;-57
2022/01/28 15:22:45;;;;;;;5.18;1.63;;;;;;;;;;4972980;28;20034;-59
2022/01/28 15:25:11;;;;;;;5.55;1.50;;;;;;;;;;4956358;28;20031;-60
2022/01/28 15:27:39;;;;;;;6.85;1.63;;;;;;;;;;4973705;28;20023;-58
2022/01/28 15:30:19;;;;;;;7.13;1.58;;;;;;;;;;4973114;28;20378;-59
2022/01/28 15:37:59;;;;;;;8.30;1.50;;;;;;;;;;4971619;28;20125;-58
2022/01/28 15:40:25;;;;;;;5.53;1.63;;;;;;;;;;4972482;28;20094;-58
2022/01/28 15:42:54;;;;;;;12.48;1.92;;;;;;;;;;4973316;28;20095;-59
2022/01/28 15:45:20;;;;;;;7.82;1.85;;;;;;;;;;4973304;28;20026;-59
2022/01/28 15:47:46;;;;;;;11.13;1.90;;;;;;;;;;4972367;28;20038;-59
2022/01/28 15:50:13;;;;;;;10.02;1.42;;;;;;;;;;4956059;28;20094;-61
2022/01/28 15:52:40;;;;;;;9.10;1.85;;;;;;;;;;4974014;28;20031;-60
2022/01/28 15:55:06;;;;;;;3.83;1.50;;;;;;;;;;4964253;28;20402;-58
2022/01/28 15:57:32;;;;;;;9.30;1.80;;;;;;;;;;4973155;28;20509;-59
2022/01/28 15:59:58;;;;;;;5.38;1.77;;;;;;;;;;4973384;28;20031;-59
2022/01/28 16:02:24;;;;;;;8.52;1.90;;;;;;;;;;4956344;28;20038;-63
2022/01/28 16:04:50;;;;;;;12.27;1.60;;;;;;;;;;4973629;28;20026;-61
2022/01/28 16:07:17;;;;;;;4.22;1.60;;;;;;;;;;4973940;28;20023;-59
2022/01/28 16:09:51;;;;;;;7.05;1.90;;;;;;;;;;4973653;28;20053;-65
2022/01/28 16:12:43;;;;;;;6.68;1.85;;;;;;;;;;4964575;28;20046;-60
2022/01/28 16:18:07;;;;;;;14.77;1.98;;;;;;;;;;4952470;28;20506;-61